Time,TemperatureF,DewpointF,PressureIn,WindDirection,WindDirectionDegrees,WindSpeedMPH,WindSpeedGustMPH,Humidity,HourlyPrecipIn,Conditions,Clouds,dailyrainin,SoftwareType,DateUTC
2013-08-07 00:01:00,78.7,73.8,29.95,SE,135,0.0,0.0,85,0.00,,,0.00,WUHU216HW,2013-08-07 05:01:00,
2013-08-07 00:06:00,78.7,73.8,29.95,SE,135,0.0,0.0,85,0.00,,,0.00,WUHU216HW,2013-08-07 05:06:00,
2013-08-07 00:11:00,78.5,73.6,29.95,SE,135,0.0,0.0,85,0.00,,,0.00,WUHU216HW,2013-08-07 05:11:00,
2013-08-07 00:16:00,78.5,73.6,29.95,SE,135,0.0,0.0,85,0.00,,,0.00,WUHU216HW,2013-08-07 05:16:00,
2013-08-07 00:21:00,78.5,73.6,29.95,SE,135,0.0,0.0,85,0.00,,,0.00,WUHU216HW,2013-08-07 05:21:00,
2013-08-07 00:26:00,78.5,73.6,29.95,North,0,0.0,0.4,85,0.00,,,0.00,WUHU216HW,2013-08-07 05:26:00,
2013-08-07 00:31:00,78.5,73.6,29.95,North,0,0.0,0.4,85,0.00,,,0.00,WUHU216HW,2013-08-07 05:31:00,
2013-08-07 00:36:00,78.3,73.4,29.95,North,0,0.0,0.0,85,0.00,,,0.00,WUHU216HW,2013-08-07 05:36:00,
2013-08-07 00:41:00,78.3,73.4,29.95,ENE,68,0.0,0.2,85,0.00,,,0.00,WUHU216HW,2013-08-07 05:41:00,
2013-08-07 00:46:00,78.3,73.4,29.95,East,90,0.0,1.1,85,0.00,,,0.00,WUHU216HW,2013-08-07 05:46:00,
2013-08-07 00:51:00,78.3,73.4,29.94,East,90,0.0,1.1,85,0.00,,,0.00,WUHU216HW,2013-08-07 05:51:00,
2013-08-07 00:56:00,78.3,73.4,29.94,SSE,158,0.0,0.7,85,0.00,,,0.00,WUHU216HW,2013-08-07 05:56:00,
2013-08-07 01:01:00,78.1,73.3,29.94,SSE,158,0.4,1.8,85,0.00,,,0.00,WUHU216HW,2013-08-07 06:01:00,
2013-08-07 01:06:00,78.1,73.3,29.93,SSE,158,0.0,1.8,85,0.00,,,0.00,WUHU216HW,2013-08-07 06:06:00,
2013-08-07 01:11:00,78.1,73.3,29.93,SSW,203,0.0,1.6,85,0.00,,,0.00,WUHU216HW,2013-08-07 06:11:00,
2013-08-07 01:16:00,78.1,73.3,29.92,SW,225,0.2,1.1,85,0.00,,,0.00,WUHU216HW,2013-08-07 06:16:00,
2013-08-07 01:21:00,78.1,73.3,29.92,South,180,0.2,3.4,85,0.00,,,0.00,WUHU216HW,2013-08-07 06:21:00,
2013-08-07 01:26:00,78.1,73.3,29.91,ESE,113,1.1,3.4,85,0.00,,,0.00,WUHU216HW,2013-08-07 06:26:00,
2013-08-07 01:31:00,78.1,73.3,29.91,ESE,113,0.0,1.6,85,0.00,,,0.00,WUHU216HW,2013-08-07 06:31:00,
2013-08-07 01:36:00,78.1,73.3,29.91,SSE,158,0.0,1.1,85,0.00,,,0.00,WUHU216HW,2013-08-07 06:36:00,
2013-08-07 01:41:00,78.1,73.3,29.91,SE,135,0.4,0.9,85,0.00,,,0.00,WUHU216HW,2013-08-07 06:41:00,
2013-08-07 01:46:00,78.1,73.3,29.91,SSW,203,0.2,0.9,85,0.00,,,0.00,WUHU216HW,2013-08-07 06:46:00,
2013-08-07 01:51:00,78.1,73.3,29.90,SSW,203,0.0,0.4,85,0.00,,,0.00,WUHU216HW,2013-08-07 06:51:00,
2013-08-07 01:56:00,78.1,73.3,29.90,SSW,203,0.4,1.8,85,0.00,,,0.00,WUHU216HW,2013-08-07 06:56:00,
2013-08-07 02:01:00,77.9,73.1,29.90,South,180,1.8,1.8,85,0.00,,,0.00,WUHU216HW,2013-08-07 07:01:00,
2013-08-07 02:06:00,77.9,73.1,29.90,South,180,2.5,2.5,85,0.00,,,0.00,WUHU216HW,2013-08-07 07:06:00,
2013-08-07 02:11:00,77.8,72.9,29.89,SSW,203,1.8,2.9,85,0.00,,,0.00,WUHU216HW,2013-08-07 07:11:00,
2013-08-07 02:16:00,77.8,72.9,29.90,SSE,158,2.2,2.9,85,0.00,,,0.00,WUHU216HW,2013-08-07 07:16:00,
2013-08-07 02:21:00,77.8,72.9,29.89,SE,135,1.8,2.9,85,0.00,,,0.00,WUHU216HW,2013-08-07 07:21:00,
2013-08-07 02:26:00,77.8,72.9,29.89,SSE,158,2.2,2.9,85,0.00,,,0.00,WUHU216HW,2013-08-07 07:26:00,
2013-08-07 02:31:00,77.8,72.9,29.89,SSW,203,1.8,2.9,85,0.00,,,0.00,WUHU216HW,2013-08-07 07:31:00,
2013-08-07 02:36:00,77.8,72.9,29.90,SSW,203,0.2,2.9,85,0.00,,,0.00,WUHU216HW,2013-08-07 07:36:00,
2013-08-07 02:41:00,77.8,72.9,29.89,SSE,158,1.6,1.8,85,0.00,,,0.00,WUHU216HW,2013-08-07 07:41:00,
2013-08-07 02:46:00,77.8,72.9,29.89,SSW,203,1.8,2.2,85,0.00,,,0.00,WUHU216HW,2013-08-07 07:46:00,
2013-08-07 02:51:00,77.8,72.9,29.89,South,180,0.9,2.2,85,0.00,,,0.00,WUHU216HW,2013-08-07 07:51:00,
2013-08-07 02:56:00,77.8,72.9,29.89,SSW,203,1.8,2.5,85,0.00,,,0.00,WUHU216HW,2013-08-07 07:56:00,
2013-08-07 03:01:00,77.8,72.9,29.89,South,180,2.2,2.9,85,0.00,,,0.00,WUHU216HW,2013-08-07 08:01:00,
2013-08-07 03:06:00,77.6,72.7,29.89,South,180,0.9,2.9,85,0.00,,,0.00,WUHU216HW,2013-08-07 08:06:00,
2013-08-07 03:11:00,77.6,72.7,29.90,SSE,158,4.3,4.3,85,0.00,,,0.00,WUHU216HW,2013-08-07 08:11:00,
2013-08-07 03:16:00,77.6,72.7,29.90,SSW,203,1.1,4.3,85,0.00,,,0.00,WUHU216HW,2013-08-07 08:16:00,
2013-08-07 03:21:00,77.6,72.7,29.89,South,180,3.1,4.3,85,0.00,,,0.00,WUHU216HW,2013-08-07 08:21:00,
2013-08-07 03:26:00,77.6,72.7,29.89,SW,225,2.2,4.7,85,0.00,,,0.00,WUHU216HW,2013-08-07 08:26:00,
2013-08-07 03:31:00,77.6,72.7,29.89,SE,135,1.8,4.7,85,0.00,,,0.00,WUHU216HW,2013-08-07 08:31:00,
2013-08-07 03:36:00,77.6,72.7,29.90,SSE,158,0.9,2.9,85,0.00,,,0.00,WUHU216HW,2013-08-07 08:36:00,
2013-08-07 03:41:00,77.6,72.7,29.91,SW,225,1.1,2.5,85,0.00,,,0.00,WUHU216HW,2013-08-07 08:41:00,
2013-08-07 03:46:00,77.6,72.7,29.90,South,180,1.8,2.5,85,0.00,,,0.00,WUHU216HW,2013-08-07 08:46:00,
2013-08-07 03:51:00,77.4,72.5,29.91,SE,135,7.2,7.2,85,0.00,,,0.00,WUHU216HW,2013-08-07 08:51:00,
2013-08-07 03:56:00,77.4,72.5,29.91,WSW,248,4.3,13.4,85,0.00,,,0.00,WUHU216HW,2013-08-07 08:56:00,
2013-08-07 04:01:00,77.2,70.9,29.91,NW,315,4.9,13.4,81,0.00,,,0.00,WUHU216HW,2013-08-07 09:01:00,
2013-08-07 04:06:00,76.7,70.0,29.91,WSW,248,9.8,11.4,80,0.00,,,0.00,WUHU216HW,2013-08-07 09:06:00,
2013-08-07 04:11:00,76.0,69.4,29.91,WSW,248,5.6,10.5,80,0.00,,,0.00,WUHU216HW,2013-08-07 09:11:00,
2013-08-07 04:16:00,75.6,69.1,29.91,SW,225,3.6,13.2,80,0.00,,,0.00,WUHU216HW,2013-08-07 09:16:00,
2013-08-07 04:21:00,74.9,68.8,29.92,WNW,293,6.3,13.2,81,0.07,,,0.07,WUHU216HW,2013-08-07 09:21:00,
2013-08-07 04:26:00,74.2,68.7,29.92,WSW,248,3.4,8.9,83,0.09,,,0.09,WUHU216HW,2013-08-07 09:26:00,
2013-08-07 04:31:00,73.4,68.3,29.93,NNW,338,2.5,6.3,84,0.11,,,0.11,WUHU216HW,2013-08-07 09:31:00,
2013-08-07 04:36:00,73.1,68.3,29.94,SSW,203,5.8,9.8,85,0.11,,,0.11,WUHU216HW,2013-08-07 09:36:00,
2013-08-07 04:41:00,72.9,68.5,29.94,West,270,7.2,9.8,86,0.12,,,0.12,WUHU216HW,2013-08-07 09:41:00,
2013-08-07 04:46:00,72.7,68.0,29.93,WNW,293,6.5,7.8,85,0.12,,,0.12,WUHU216HW,2013-08-07 09:46:00,
2013-08-07 04:51:00,72.5,68.1,29.93,West,270,9.2,9.8,86,0.13,,,0.13,WUHU216HW,2013-08-07 09:51:00,
2013-08-07 04:56:00,72.5,68.1,29.94,North,0,2.5,9.8,86,0.15,,,0.15,WUHU216HW,2013-08-07 09:56:00,
2013-08-07 05:01:00,72.4,68.3,29.95,North,0,1.3,9.2,87,0.17,,,0.17,WUHU216HW,2013-08-07 10:01:00,
2013-08-07 05:06:00,72.4,68.3,29.95,WNW,293,1.1,4.7,87,0.18,,,0.18,WUHU216HW,2013-08-07 10:06:00,
2013-08-07 05:11:00,72.4,68.6,29.95,WSW,248,1.8,4.7,88,0.20,,,0.20,WUHU216HW,2013-08-07 10:11:00,
2013-08-07 05:16:00,72.4,68.6,29.95,West,270,3.8,4.7,88,0.16,,,0.22,WUHU216HW,2013-08-07 10:16:00,
2013-08-07 05:21:00,72.2,68.4,29.96,West,270,6.3,6.3,88,0.14,,,0.22,WUHU216HW,2013-08-07 10:21:00,
2013-08-07 05:26:00,72.2,68.4,29.96,WSW,248,2.5,8.7,88,0.14,,,0.23,WUHU216HW,2013-08-07 10:26:00,
2013-08-07 05:31:00,72.2,68.4,29.95,SW,225,6.9,8.7,88,0.14,,,0.25,WUHU216HW,2013-08-07 10:31:00,
2013-08-07 05:36:00,72.2,68.8,29.95,SSW,203,2.5,7.6,89,0.13,,,0.25,WUHU216HW,2013-08-07 10:36:00,
2013-08-07 05:41:00,72.2,68.8,29.95,SW,225,3.4,8.1,89,0.15,,,0.27,WUHU216HW,2013-08-07 10:41:00,
2013-08-07 05:46:00,72.2,68.8,29.96,NNW,338,2.2,8.1,89,0.15,,,0.28,WUHU216HW,2013-08-07 10:46:00,
2013-08-07 05:51:00,72.2,68.8,29.97,West,270,5.4,5.4,89,0.16,,,0.29,WUHU216HW,2013-08-07 10:51:00,
2013-08-07 05:56:00,72.2,68.8,29.96,SW,225,4.9,6.7,89,0.14,,,0.30,WUHU216HW,2013-08-07 10:56:00,
2013-08-07 06:01:00,72.0,68.6,29.95,WSW,248,3.4,8.5,89,0.13,,,0.32,WUHU216HW,2013-08-07 11:01:00,
2013-08-07 06:06:00,72.0,68.6,29.96,SW,225,1.1,9.6,89,0.13,,,0.32,WUHU216HW,2013-08-07 11:06:00,
2013-08-07 06:11:00,72.0,68.9,29.96,SSW,203,0.7,9.6,90,0.14,,,0.34,WUHU216HW,2013-08-07 11:11:00,
2013-08-07 06:16:00,72.2,69.1,29.96,WSW,248,0.4,6.0,90,0.13,,,0.36,WUHU216HW,2013-08-07 11:16:00,
2013-08-07 06:21:00,72.2,69.1,29.96,West,270,1.1,6.0,90,0.14,,,0.37,WUHU216HW,2013-08-07 11:21:00,
2013-08-07 06:26:00,72.2,69.1,29.97,WNW,293,0.7,6.0,90,0.13,,,0.38,WUHU216HW,2013-08-07 11:26:00,
2013-08-07 06:31:00,72.2,69.1,29.97,SW,225,2.2,2.5,90,0.19,,,0.45,WUHU216HW,2013-08-07 11:31:00,
2013-08-07 06:36:00,72.0,68.9,29.97,South,180,0.2,2.5,90,0.19,,,0.46,WUHU216HW,2013-08-07 11:36:00,
2013-08-07 06:41:00,72.0,68.9,29.97,South,180,0.0,2.2,90,0.19,,,0.46,WUHU216HW,2013-08-07 11:41:00,
2013-08-07 06:46:00,72.0,68.9,29.97,NW,315,0.4,1.3,90,0.18,,,0.48,WUHU216HW,2013-08-07 11:46:00,
2013-08-07 06:51:00,72.0,68.9,29.97,North,0,0.0,1.3,90,0.19,,,0.49,WUHU216HW,2013-08-07 11:51:00,
2013-08-07 06:56:00,72.0,68.9,29.97,NNE,23,0.4,1.1,90,0.18,,,0.50,WUHU216HW,2013-08-07 11:56:00,
2013-08-07 07:01:00,72.0,68.9,29.97,ESE,113,0.9,1.6,90,0.20,,,0.52,WUHU216HW,2013-08-07 12:01:00,
2013-08-07 07:06:00,72.0,68.9,29.97,WSW,248,0.9,1.6,90,0.20,,,0.53,WUHU216HW,2013-08-07 12:06:00,
2013-08-07 07:11:00,72.0,68.9,29.97,SSE,158,0.4,1.6,90,0.19,,,0.54,WUHU216HW,2013-08-07 12:11:00,
2013-08-07 07:16:00,72.0,68.9,29.97,NNE,23,0.4,2.5,90,0.17,,,0.54,WUHU216HW,2013-08-07 12:16:00,
2013-08-07 07:21:00,72.0,68.9,29.97,East,90,0.4,4.7,90,0.16,,,0.54,WUHU216HW,2013-08-07 12:21:00,
2013-08-07 07:26:00,72.0,69.2,29.97,NNW,338,0.2,4.7,91,0.16,,,0.55,WUHU216HW,2013-08-07 12:26:00,
2013-08-07 07:31:00,72.0,69.2,29.97,North,0,0.9,1.1,91,0.10,,,0.55,WUHU216HW,2013-08-07 12:31:00,
2013-08-07 07:36:00,72.0,69.2,29.97,NNE,23,0.2,1.1,91,0.09,,,0.55,WUHU216HW,2013-08-07 12:36:00,
2013-08-07 07:41:00,72.2,69.4,29.97,NNE,23,0.0,1.1,91,0.09,,,0.56,WUHU216HW,2013-08-07 12:41:00,
2013-08-07 07:46:00,72.2,69.4,29.97,NNE,23,0.0,0.9,91,0.08,,,0.56,WUHU216HW,2013-08-07 12:46:00,
2013-08-07 07:51:00,72.2,69.4,29.97,WNW,293,0.0,0.9,91,0.07,,,0.56,WUHU216HW,2013-08-07 12:51:00,
2013-08-07 07:56:00,72.4,69.6,29.96,WNW,293,0.4,0.9,91,0.04,,,0.56,WUHU216HW,2013-08-07 12:56:00,
2013-08-07 08:01:00,72.4,69.6,29.97,WNW,293,0.0,0.4,91,0.03,,,0.56,WUHU216HW,2013-08-07 13:01:00,
2013-08-07 08:06:00,72.2,69.4,29.97,WNW,293,0.0,0.4,91,0.03,,,0.56,WUHU216HW,2013-08-07 13:06:00,
2013-08-07 08:11:00,72.2,69.4,29.97,NE,45,0.7,1.1,91,0.02,,,0.56,WUHU216HW,2013-08-07 13:11:00,
2013-08-07 08:16:00,72.0,69.2,29.98,NNE,23,0.0,1.1,91,0.02,,,0.56,WUHU216HW,2013-08-07 13:16:00,
2013-08-07 08:21:00,72.2,69.4,29.97,ESE,113,0.4,2.9,91,0.01,,,0.56,WUHU216HW,2013-08-07 13:21:00,
2013-08-07 08:26:00,72.0,69.2,29.98,North,0,2.7,4.9,91,0.01,,,0.56,WUHU216HW,2013-08-07 13:26:00,
2013-08-07 08:31:00,72.0,69.2,29.98,NNW,338,0.2,4.9,91,0.01,,,0.56,WUHU216HW,2013-08-07 13:31:00,
2013-08-07 08:36:00,72.0,69.2,29.97,North,0,0.4,4.0,91,0.00,,,0.56,WUHU216HW,2013-08-07 13:36:00,
2013-08-07 08:42:00,72.0,69.2,29.98,NNW,338,0.0,1.1,91,0.00,,,0.56,WUHU216HW,2013-08-07 13:42:00,
2013-08-07 08:47:00,72.2,69.4,29.97,SSW,203,0.0,1.3,91,0.00,,,0.56,WUHU216HW,2013-08-07 13:47:00,
2013-08-07 08:52:00,72.4,69.6,29.97,SSW,203,0.0,1.3,91,0.00,,,0.56,WUHU216HW,2013-08-07 13:52:00,
2013-08-07 08:56:00,72.5,69.8,29.97,SSW,203,1.3,1.3,91,0.00,,,0.56,WUHU216HW,2013-08-07 13:56:00,
2013-08-07 09:02:00,72.7,69.9,29.97,SSW,203,0.2,1.3,91,0.00,,,0.56,WUHU216HW,2013-08-07 14:02:00,
2013-08-07 09:06:00,72.7,69.9,29.97,SSW,203,0.9,1.8,91,0.00,,,0.56,WUHU216HW,2013-08-07 14:06:00,
2013-08-07 09:11:00,72.9,70.1,29.97,South,180,0.9,1.8,91,0.00,,,0.56,WUHU216HW,2013-08-07 14:11:00,
2013-08-07 09:16:00,73.1,70.3,29.98,WSW,248,2.7,2.7,91,0.00,,,0.56,WUHU216HW,2013-08-07 14:16:00,
2013-08-07 09:21:00,73.1,70.3,29.98,SSW,203,1.8,3.8,91,0.00,,,0.56,WUHU216HW,2013-08-07 14:21:00,
2013-08-07 09:26:00,73.3,70.8,29.98,WSW,248,2.7,3.8,92,0.00,,,0.56,WUHU216HW,2013-08-07 14:26:00,
2013-08-07 09:31:00,73.3,70.8,29.99,WSW,248,2.0,4.0,92,0.00,,,0.56,WUHU216HW,2013-08-07 14:31:00,
2013-08-07 09:37:00,73.3,70.8,30.00,SW,225,1.8,4.0,92,0.00,,,0.56,WUHU216HW,2013-08-07 14:37:00,
2013-08-07 09:41:00,73.4,71.0,30.01,West,270,0.4,4.0,92,0.00,,,0.56,WUHU216HW,2013-08-07 14:41:00,
2013-08-07 09:46:00,73.4,71.0,30.01,West,270,0.2,2.0,92,0.00,,,0.56,WUHU216HW,2013-08-07 14:46:00,
2013-08-07 09:51:00,73.8,71.4,30.01,West,270,0.4,2.2,92,0.00,,,0.56,WUHU216HW,2013-08-07 14:51:00,
2013-08-07 09:56:00,74.0,71.6,30.01,WSW,248,2.2,2.2,92,0.00,,,0.56,WUHU216HW,2013-08-07 14:56:00,
2013-08-07 10:01:00,74.2,71.7,30.02,West,270,0.0,2.7,92,0.00,,,0.56,WUHU216HW,2013-08-07 15:01:00,
2013-08-07 10:06:00,74.2,71.7,30.02,SE,135,1.1,2.7,92,0.00,,,0.56,WUHU216HW,2013-08-07 15:06:00,
2013-08-07 10:11:00,74.2,71.7,30.03,SE,135,0.0,1.1,92,0.00,,,0.56,WUHU216HW,2013-08-07 15:11:00,
2013-08-07 10:16:00,74.3,71.9,30.03,SE,135,0.0,0.9,92,0.00,,,0.56,WUHU216HW,2013-08-07 15:16:00,
2013-08-07 10:21:00,74.3,71.9,30.03,ESE,113,1.1,2.2,92,0.00,,,0.56,WUHU216HW,2013-08-07 15:21:00,
2013-08-07 10:26:00,74.7,72.3,30.04,SE,135,2.5,3.6,92,0.00,,,0.56,WUHU216HW,2013-08-07 15:26:00,
2013-08-07 10:32:00,74.9,72.5,30.04,SSE,158,2.0,4.7,92,0.00,,,0.56,WUHU216HW,2013-08-07 15:32:00,
2013-08-07 10:37:00,75.1,72.6,30.04,SSE,158,1.1,4.7,92,0.00,,,0.56,WUHU216HW,2013-08-07 15:37:00,
2013-08-07 10:42:00,75.2,72.8,30.04,SE,135,1.1,4.0,92,0.00,,,0.56,WUHU216HW,2013-08-07 15:42:00,
2013-08-07 10:47:00,75.2,72.8,30.04,East,90,0.4,1.8,92,0.00,,,0.56,WUHU216HW,2013-08-07 15:47:00,
2013-08-07 10:52:00,75.2,72.8,30.04,SSE,158,2.9,2.9,92,0.00,,,0.56,WUHU216HW,2013-08-07 15:52:00,
2013-08-07 10:57:00,75.2,72.8,30.04,East,90,4.3,4.3,92,0.00,,,0.56,WUHU216HW,2013-08-07 15:57:00,
2013-08-07 11:02:00,75.6,73.2,30.03,South,180,0.7,4.3,92,0.00,,,0.56,WUHU216HW,2013-08-07 16:02:00,
2013-08-07 11:07:00,75.8,73.0,30.03,ENE,68,2.0,4.7,91,0.00,,,0.56,WUHU216HW,2013-08-07 16:07:00,
2013-08-07 11:12:00,75.8,73.0,30.03,NE,45,2.7,4.7,91,0.00,,,0.56,WUHU216HW,2013-08-07 16:12:00,
2013-08-07 11:17:00,76.0,72.9,30.03,ENE,68,0.4,4.5,90,0.00,,,0.56,WUHU216HW,2013-08-07 16:17:00,
2013-08-07 11:22:00,76.1,73.1,30.03,SE,135,2.5,4.5,90,0.00,,,0.56,WUHU216HW,2013-08-07 16:22:00,
2013-08-07 11:27:00,76.3,72.9,30.03,South,180,4.0,4.0,89,0.00,,,0.56,WUHU216HW,2013-08-07 16:27:00,
2013-08-07 11:32:00,76.7,73.3,30.03,South,180,2.5,4.0,89,0.00,,,0.56,WUHU216HW,2013-08-07 16:32:00,
2013-08-07 11:37:00,77.0,73.6,30.03,SW,225,2.0,4.0,89,0.00,,,0.56,WUHU216HW,2013-08-07 16:37:00,
2013-08-07 11:42:00,77.4,74.0,30.03,SSW,203,1.1,4.0,89,0.00,,,0.56,WUHU216HW,2013-08-07 16:42:00,
2013-08-07 11:47:00,77.4,74.0,30.03,WSW,248,2.9,3.8,89,0.00,,,0.56,WUHU216HW,2013-08-07 16:47:00,
2013-08-07 11:52:00,77.6,73.8,30.03,WSW,248,1.8,4.3,88,0.00,,,0.56,WUHU216HW,2013-08-07 16:52:00,
2013-08-07 11:57:00,77.8,73.6,30.03,SW,225,2.5,4.3,87,0.00,,,0.56,WUHU216HW,2013-08-07 16:57:00,
2013-08-07 12:02:00,77.8,73.3,30.03,ENE,68,1.8,3.4,86,0.00,,,0.56,WUHU216HW,2013-08-07 17:02:00,
2013-08-07 12:07:00,77.9,73.4,30.03,WSW,248,1.8,4.0,86,0.00,,,0.56,WUHU216HW,2013-08-07 17:07:00,
2013-08-07 12:12:00,78.1,73.3,30.02,SSE,158,1.1,4.0,85,0.00,,,0.56,WUHU216HW,2013-08-07 17:12:00,
2013-08-07 12:17:00,78.1,73.3,30.02,WSW,248,2.9,5.1,85,0.00,,,0.56,WUHU216HW,2013-08-07 17:17:00,
2013-08-07 12:22:00,78.3,73.4,30.03,WSW,248,0.2,5.1,85,0.00,,,0.56,WUHU216HW,2013-08-07 17:22:00,
2013-08-07 12:27:00,78.3,73.4,30.03,South,180,0.9,2.9,85,0.00,,,0.56,WUHU216HW,2013-08-07 17:27:00,
2013-08-07 12:32:00,78.5,73.6,30.02,WNW,293,1.8,3.1,85,0.00,,,0.56,WUHU216HW,2013-08-07 17:32:00,
2013-08-07 12:37:00,78.8,74.0,30.02,SW,225,2.5,5.6,85,0.00,,,0.56,WUHU216HW,2013-08-07 17:37:00,
2013-08-07 12:41:00,79.2,74.4,30.03,SW,225,2.9,5.6,85,0.00,,,0.56,WUHU216HW,2013-08-07 17:41:00,
2013-08-07 12:46:00,79.6,74.4,30.03,SSE,158,4.5,4.7,84,0.00,,,0.56,WUHU216HW,2013-08-07 17:46:00,
2013-08-07 12:51:00,79.7,74.5,30.03,WSW,248,2.9,6.3,84,0.00,,,0.56,WUHU216HW,2013-08-07 17:51:00,
2013-08-07 12:56:00,79.9,74.4,30.03,SSE,158,3.4,6.3,83,0.00,,,0.56,WUHU216HW,2013-08-07 17:56:00,
2013-08-07 13:01:00,80.1,74.5,30.03,SSE,158,2.0,4.7,83,0.00,,,0.56,WUHU216HW,2013-08-07 18:01:00,
2013-08-07 13:06:00,80.1,74.5,30.03,SW,225,1.6,4.7,83,0.00,,,0.56,WUHU216HW,2013-08-07 18:06:00,
2013-08-07 13:11:00,80.1,74.2,30.03,South,180,5.4,7.2,82,0.00,,,0.56,WUHU216HW,2013-08-07 18:11:00,
2013-08-07 13:16:00,80.3,74.4,30.03,SW,225,2.2,7.2,82,0.00,,,0.56,WUHU216HW,2013-08-07 18:16:00,
2013-08-07 13:21:00,80.5,74.5,30.03,SSE,158,2.0,5.4,82,0.00,,,0.56,WUHU216HW,2013-08-07 18:21:00,
2013-08-07 13:26:00,80.8,74.9,30.02,WSW,248,2.7,3.6,82,0.00,,,0.56,WUHU216HW,2013-08-07 18:26:00,
2013-08-07 13:31:00,80.8,74.5,30.02,West,270,2.5,4.3,81,0.00,,,0.56,WUHU216HW,2013-08-07 18:31:00,
2013-08-07 13:36:00,81.0,74.7,30.02,SSE,158,1.1,4.3,81,0.00,,,0.56,WUHU216HW,2013-08-07 18:36:00,
2013-08-07 13:41:00,81.5,75.6,30.02,SE,135,2.2,5.1,82,0.00,,,0.56,WUHU216HW,2013-08-07 18:41:00,
2013-08-07 13:46:00,81.9,75.6,30.02,WSW,248,3.8,5.1,81,0.00,,,0.56,WUHU216HW,2013-08-07 18:46:00,
2013-08-07 13:51:00,82.1,75.8,30.02,SE,135,1.6,4.7,81,0.00,,,0.56,WUHU216HW,2013-08-07 18:51:00,
2013-08-07 13:56:00,82.4,75.8,30.02,WSW,248,3.8,4.7,80,0.00,,,0.56,WUHU216HW,2013-08-07 18:56:00,
2013-08-07 14:01:00,82.6,76.0,30.02,NNW,338,3.4,6.3,80,0.00,,,0.56,WUHU216HW,2013-08-07 19:01:00,
2013-08-07 14:06:00,82.6,75.5,30.02,North,0,0.4,6.3,79,0.00,,,0.56,WUHU216HW,2013-08-07 19:06:00,
2013-08-07 14:11:00,82.6,75.5,30.02,SSW,203,1.8,3.4,79,0.00,,,0.56,WUHU216HW,2013-08-07 19:11:00,
2013-08-07 14:16:00,82.6,75.5,30.02,SSE,158,1.8,3.8,79,0.00,,,0.56,WUHU216HW,2013-08-07 19:16:00,
2013-08-07 14:21:00,82.6,75.2,30.02,SW,225,2.5,5.4,78,0.00,,,0.56,WUHU216HW,2013-08-07 19:21:00,
2013-08-07 14:26:00,83.2,76.1,30.02,SW,225,1.6,5.4,79,0.00,,,0.56,WUHU216HW,2013-08-07 19:26:00,
2013-08-07 14:31:00,83.3,75.8,30.01,SW,225,1.1,3.8,78,0.00,,,0.56,WUHU216HW,2013-08-07 19:31:00,
2013-08-07 14:36:00,83.7,76.2,30.02,SSE,158,0.4,4.0,78,0.00,,,0.56,WUHU216HW,2013-08-07 19:36:00,
2013-08-07 14:41:00,83.7,75.7,30.02,WSW,248,1.8,4.0,77,0.00,,,0.56,WUHU216HW,2013-08-07 19:41:00,
2013-08-07 14:46:00,83.7,75.7,30.02,WSW,248,2.7,4.0,77,0.00,,,0.56,WUHU216HW,2013-08-07 19:46:00,
2013-08-07 14:51:00,83.5,75.5,30.01,West,270,1.3,2.7,77,0.00,,,0.56,WUHU216HW,2013-08-07 19:51:00,
2013-08-07 14:56:00,83.5,75.5,30.01,SSE,158,0.9,2.7,77,0.00,,,0.56,WUHU216HW,2013-08-07 19:56:00,
2013-08-07 15:01:00,83.5,75.5,30.01,SSW,203,0.9,2.7,77,0.00,,,0.56,WUHU216HW,2013-08-07 20:01:00,
2013-08-07 15:06:00,83.3,75.3,30.01,NNE,23,0.7,2.0,77,0.00,,,0.56,WUHU216HW,2013-08-07 20:06:00,
2013-08-07 15:11:00,83.2,75.3,30.01,West,270,1.3,2.2,77,0.00,,,0.56,WUHU216HW,2013-08-07 20:11:00,
2013-08-07 15:16:00,83.3,75.3,30.01,North,0,0.7,4.3,77,0.00,,,0.56,WUHU216HW,2013-08-07 20:16:00,
2013-08-07 15:21:00,83.3,75.3,30.02,West,270,2.2,4.3,77,0.00,,,0.56,WUHU216HW,2013-08-07 20:21:00,
2013-08-07 15:26:00,83.2,75.6,30.02,NW,315,1.8,3.8,78,0.00,,,0.56,WUHU216HW,2013-08-07 20:26:00,
2013-08-07 15:31:00,83.2,75.3,30.02,West,270,0.7,4.0,77,0.00,,,0.56,WUHU216HW,2013-08-07 20:31:00,
2013-08-07 15:36:00,83.2,75.3,30.02,WSW,248,2.5,4.3,77,0.00,,,0.56,WUHU216HW,2013-08-07 20:36:00,
2013-08-07 15:41:00,83.0,75.1,30.02,WSW,248,1.8,5.4,77,0.00,,,0.56,WUHU216HW,2013-08-07 20:41:00,
2013-08-07 15:46:00,83.0,75.1,30.02,WSW,248,1.6,5.4,77,0.00,,,0.56,WUHU216HW,2013-08-07 20:46:00,
2013-08-07 15:51:00,83.2,75.3,30.02,West,270,3.1,4.7,77,0.00,,,0.56,WUHU216HW,2013-08-07 20:51:00,
2013-08-07 15:56:00,83.5,75.5,30.02,NE,45,1.1,4.9,77,0.00,,,0.56,WUHU216HW,2013-08-07 20:56:00,
2013-08-07 16:01:00,83.9,75.9,30.02,SSW,203,1.1,4.9,77,0.00,,,0.56,WUHU216HW,2013-08-07 21:01:00,
2013-08-07 16:06:00,83.9,75.9,30.02,West,270,4.0,6.9,77,0.00,,,0.56,WUHU216HW,2013-08-07 21:06:00,
2013-08-07 16:11:00,83.9,75.9,30.02,WNW,293,1.8,6.9,77,0.00,,,0.56,WUHU216HW,2013-08-07 21:11:00,
2013-08-07 16:16:00,83.9,75.9,30.02,NNW,338,1.8,4.7,77,0.00,,,0.56,WUHU216HW,2013-08-07 21:16:00,
2013-08-07 16:21:00,84.2,75.8,30.02,NW,315,0.4,6.7,76,0.00,,,0.56,WUHU216HW,2013-08-07 21:21:00,
2013-08-07 16:26:00,84.2,75.8,30.02,WSW,248,2.5,6.7,76,0.00,,,0.56,WUHU216HW,2013-08-07 21:26:00,
2013-08-07 16:31:00,84.4,76.0,30.02,South,180,0.2,4.0,76,0.00,,,0.56,WUHU216HW,2013-08-07 21:31:00,
2013-08-07 16:36:00,84.4,76.0,30.02,WSW,248,3.1,6.3,76,0.00,,,0.56,WUHU216HW,2013-08-07 21:36:00,
2013-08-07 16:41:00,84.6,76.1,30.01,WSW,248,1.6,6.3,76,0.00,,,0.56,WUHU216HW,2013-08-07 21:41:00,
2013-08-07 16:46:00,85.0,76.1,30.01,WSW,248,1.6,4.3,75,0.00,,,0.56,WUHU216HW,2013-08-07 21:46:00,
2013-08-07 16:51:00,85.3,76.5,30.01,North,0,2.0,3.8,75,0.00,,,0.56,WUHU216HW,2013-08-07 21:51:00,
2013-08-07 16:56:00,85.3,76.5,30.01,WSW,248,0.9,5.4,75,0.00,,,0.56,WUHU216HW,2013-08-07 21:56:00,
2013-08-07 17:01:00,85.1,76.3,30.01,WSW,248,1.8,5.4,75,0.00,,,0.56,WUHU216HW,2013-08-07 22:01:00,
2013-08-07 17:06:00,85.0,76.1,30.01,West,270,3.6,5.4,75,0.00,,,0.56,WUHU216HW,2013-08-07 22:06:00,
2013-08-07 17:11:00,85.0,76.1,30.01,SW,225,1.6,4.5,75,0.00,,,0.56,WUHU216HW,2013-08-07 22:11:00,
2013-08-07 17:16:00,85.0,76.1,30.00,NNE,23,1.6,3.6,75,0.00,,,0.56,WUHU216HW,2013-08-07 22:16:00,
2013-08-07 17:21:00,85.0,76.1,30.00,West,270,1.1,4.0,75,0.00,,,0.56,WUHU216HW,2013-08-07 22:21:00,
2013-08-07 17:26:00,85.1,76.3,30.00,West,270,1.8,4.0,75,0.00,,,0.56,WUHU216HW,2013-08-07 22:26:00,
2013-08-07 17:31:00,85.0,76.1,30.00,NNW,338,1.8,3.6,75,0.00,,,0.56,WUHU216HW,2013-08-07 22:31:00,
2013-08-07 17:36:00,85.0,76.1,30.00,WSW,248,2.5,3.6,75,0.00,,,0.56,WUHU216HW,2013-08-07 22:36:00,
2013-08-07 17:41:00,84.8,76.0,30.00,SSE,158,0.4,4.5,75,0.00,,,0.56,WUHU216HW,2013-08-07 22:41:00,
2013-08-07 17:47:00,84.6,75.8,30.00,WSW,248,0.9,4.5,75,0.00,,,0.56,WUHU216HW,2013-08-07 22:47:00,
2013-08-07 17:52:00,84.6,75.8,30.00,West,270,2.2,3.4,75,0.00,,,0.56,WUHU216HW,2013-08-07 22:52:00,
2013-08-07 17:57:00,84.8,76.0,30.00,West,270,2.7,5.1,75,0.00,,,0.56,WUHU216HW,2013-08-07 22:57:00,
2013-08-07 18:02:00,84.8,76.0,30.01,NNW,338,0.0,5.1,75,0.00,,,0.56,WUHU216HW,2013-08-07 23:02:00,
2013-08-07 18:07:00,84.6,75.8,30.00,North,0,0.2,2.7,75,0.00,,,0.56,WUHU216HW,2013-08-07 23:07:00,
2013-08-07 18:11:00,84.6,75.8,30.00,North,0,0.0,2.2,75,0.00,,,0.56,WUHU216HW,2013-08-07 23:11:00,
2013-08-07 18:16:00,84.4,75.6,30.01,North,0,0.0,1.8,75,0.00,,,0.56,WUHU216HW,2013-08-07 23:16:00,
2013-08-07 18:21:00,84.2,75.4,30.00,North,0,0.4,1.8,75,0.00,,,0.56,WUHU216HW,2013-08-07 23:21:00,
2013-08-07 18:26:00,84.2,75.4,30.01,NNW,338,0.4,1.8,75,0.00,,,0.56,WUHU216HW,2013-08-07 23:26:00,
2013-08-07 18:31:00,84.1,75.2,30.00,NNW,338,1.1,1.3,75,0.00,,,0.56,WUHU216HW,2013-08-07 23:31:00,
2013-08-07 18:36:00,84.1,75.2,30.00,North,0,0.2,1.3,75,0.00,,,0.56,WUHU216HW,2013-08-07 23:36:00,
2013-08-07 18:41:00,83.9,75.1,30.00,NNW,338,0.0,1.1,75,0.00,,,0.56,WUHU216HW,2013-08-07 23:41:00,
2013-08-07 18:46:00,83.9,75.5,30.00,North,0,0.7,0.7,76,0.00,,,0.56,WUHU216HW,2013-08-07 23:46:00,
2013-08-07 18:52:00,83.9,75.1,30.00,NNW,338,1.1,2.5,75,0.00,,,0.56,WUHU216HW,2013-08-07 23:52:00,
2013-08-07 18:57:00,83.9,75.1,30.00,North,0,0.4,2.5,75,0.00,,,0.56,WUHU216HW,2013-08-07 23:57:00,
2013-08-07 19:02:00,83.7,74.9,30.00,NNW,338,0.9,2.5,75,0.00,,,0.56,WUHU216HW,2013-08-08 00:02:00,
2013-08-07 19:07:00,83.7,75.3,30.00,NNW,338,2.5,2.9,76,0.00,,,0.56,WUHU216HW,2013-08-08 00:07:00,
2013-08-07 19:12:00,83.5,75.2,30.00,North,0,0.4,3.4,76,0.00,,,0.56,WUHU216HW,2013-08-08 00:12:00,
2013-08-07 19:17:00,83.5,75.2,30.00,North,0,0.7,3.4,76,0.00,,,0.56,WUHU216HW,2013-08-08 00:17:00,
2013-08-07 19:22:00,83.3,75.0,30.00,NNW,338,0.4,1.8,76,0.00,,,0.56,WUHU216HW,2013-08-08 00:22:00,
2013-08-07 19:27:00,83.3,75.0,30.00,North,0,0.0,1.8,76,0.00,,,0.56,WUHU216HW,2013-08-08 00:27:00,
2013-08-07 19:32:00,83.2,74.8,30.00,NNW,338,0.9,1.8,76,0.00,,,0.56,WUHU216HW,2013-08-08 00:32:00,
2013-08-07 19:37:00,83.0,74.3,30.00,North,0,3.1,3.1,75,0.00,,,0.56,WUHU216HW,2013-08-08 00:37:00,
2013-08-07 19:42:00,82.8,74.1,30.00,NNW,338,0.9,3.1,75,0.00,,,0.56,WUHU216HW,2013-08-08 00:42:00,
2013-08-07 19:47:00,82.8,74.1,30.01,NNW,338,1.1,3.1,75,0.00,,,0.56,WUHU216HW,2013-08-08 00:47:00,
2013-08-07 19:52:00,82.6,73.4,30.01,North,0,0.4,1.8,74,0.00,,,0.56,WUHU216HW,2013-08-08 00:52:00,
2013-08-07 19:57:00,82.4,73.3,30.01,NNW,338,0.9,2.5,74,0.00,,,0.56,WUHU216HW,2013-08-08 00:57:00,
2013-08-07 20:02:00,82.3,72.7,30.00,North,0,0.0,2.5,73,0.00,,,0.56,WUHU216HW,2013-08-08 01:02:00,
2013-08-07 20:07:00,82.1,72.5,30.00,NNW,338,0.0,1.8,73,0.00,,,0.56,WUHU216HW,2013-08-08 01:07:00,
2013-08-07 20:12:00,81.9,72.0,30.01,NNW,338,0.2,2.9,72,0.00,,,0.56,WUHU216HW,2013-08-08 01:12:00,
2013-08-07 20:17:00,81.7,71.8,30.00,NNW,338,0.4,2.9,72,0.00,,,0.56,WUHU216HW,2013-08-08 01:17:00,
2013-08-07 20:22:00,81.5,71.6,30.01,NW,315,0.0,0.9,72,0.00,,,0.56,WUHU216HW,2013-08-08 01:22:00,
2013-08-07 20:27:00,81.4,71.5,30.01,NW,315,0.0,0.9,72,0.00,,,0.56,WUHU216HW,2013-08-08 01:27:00,
2013-08-07 20:32:00,81.0,71.1,30.01,NW,315,0.0,1.1,72,0.00,,,0.56,WUHU216HW,2013-08-08 01:32:00,
2013-08-07 20:37:00,80.8,71.0,30.01,NW,315,0.0,1.1,72,0.00,,,0.56,WUHU216HW,2013-08-08 01:37:00,
2013-08-07 20:42:00,80.6,70.8,30.01,North,0,0.0,1.1,72,0.00,,,0.56,WUHU216HW,2013-08-08 01:42:00,
2013-08-07 20:47:00,80.5,70.7,30.01,North,0,0.4,1.1,72,0.00,,,0.56,WUHU216HW,2013-08-08 01:47:00,
2013-08-07 20:52:00,80.3,70.5,30.01,North,0,0.4,1.1,72,0.00,,,0.56,WUHU216HW,2013-08-08 01:52:00,
2013-08-07 20:57:00,80.1,70.3,30.02,NNW,338,1.1,2.0,72,0.00,,,0.56,WUHU216HW,2013-08-08 01:57:00,
2013-08-07 21:02:00,79.9,70.1,30.02,NE,45,1.8,2.9,72,0.00,,,0.56,WUHU216HW,2013-08-08 02:02:00,
2013-08-07 21:07:00,79.6,69.8,30.02,North,0,0.4,2.9,72,0.00,,,0.56,WUHU216HW,2013-08-08 02:07:00,
2013-08-07 21:12:00,79.6,70.1,30.02,NNW,338,1.1,1.8,73,0.00,,,0.56,WUHU216HW,2013-08-08 02:12:00,
2013-08-07 21:17:00,79.4,69.9,30.02,North,0,1.1,2.2,73,0.00,,,0.56,WUHU216HW,2013-08-08 02:17:00,
2013-08-07 21:22:00,79.2,69.8,30.02,North,0,1.6,2.2,73,0.00,,,0.56,WUHU216HW,2013-08-08 02:22:00,
2013-08-07 21:27:00,79.0,69.6,30.03,NNE,23,0.4,1.8,73,0.00,,,0.56,WUHU216HW,2013-08-08 02:27:00,
2013-08-07 21:32:00,78.8,69.4,30.03,NW,315,0.0,1.8,73,0.00,,,0.56,WUHU216HW,2013-08-08 02:32:00,
2013-08-07 21:37:00,78.8,69.4,30.03,West,270,0.4,1.3,73,0.00,,,0.56,WUHU216HW,2013-08-08 02:37:00,
2013-08-07 21:42:00,78.7,69.2,30.03,North,0,0.2,2.0,73,0.00,,,0.56,WUHU216HW,2013-08-08 02:42:00,
2013-08-07 21:47:00,78.5,69.5,30.04,NNE,23,0.0,2.0,74,0.00,,,0.56,WUHU216HW,2013-08-08 02:47:00,
2013-08-07 21:52:00,78.3,69.3,30.04,NNW,338,0.0,1.1,74,0.00,,,0.56,WUHU216HW,2013-08-08 02:52:00,
2013-08-07 21:57:00,78.3,69.3,30.04,NNW,338,0.4,1.1,74,0.00,,,0.56,WUHU216HW,2013-08-08 02:57:00,
2013-08-07 22:02:00,78.1,69.1,30.04,NNW,338,0.4,1.1,74,0.00,,,0.56,WUHU216HW,2013-08-08 03:02:00,
2013-08-07 22:07:00,78.1,69.1,30.04,NNW,338,0.0,0.7,74,0.00,,,0.56,WUHU216HW,2013-08-08 03:07:00,
2013-08-07 22:12:00,77.9,69.3,30.04,NNW,338,1.1,1.1,75,0.00,,,0.56,WUHU216HW,2013-08-08 03:12:00,
2013-08-07 22:17:00,77.8,68.8,30.04,North,0,0.9,1.1,74,0.00,,,0.56,WUHU216HW,2013-08-08 03:17:00,
2013-08-07 22:22:00,77.6,69.0,30.04,NNW,338,0.0,1.1,75,0.00,,,0.56,WUHU216HW,2013-08-08 03:22:00,
2013-08-07 22:27:00,77.4,68.9,30.04,NNW,338,0.0,0.9,75,0.00,,,0.56,WUHU216HW,2013-08-08 03:27:00,
2013-08-07 22:32:00,77.4,68.9,30.04,NNW,338,0.0,0.2,75,0.00,,,0.56,WUHU216HW,2013-08-08 03:32:00,
2013-08-07 22:37:00,77.0,68.5,30.04,NNW,338,0.0,0.0,75,0.00,,,0.56,WUHU216HW,2013-08-08 03:37:00,
2013-08-07 22:42:00,76.9,68.3,30.04,NNW,338,0.0,0.0,75,0.00,,,0.56,WUHU216HW,2013-08-08 03:42:00,
2013-08-07 22:47:00,76.7,68.1,30.04,NNW,338,0.0,0.0,75,0.00,,,0.56,WUHU216HW,2013-08-08 03:47:00,
2013-08-07 22:52:00,76.5,68.0,30.04,NNW,338,0.0,0.7,75,0.00,,,0.56,WUHU216HW,2013-08-08 03:52:00,
2013-08-07 22:57:00,76.3,68.2,30.04,NNW,338,0.0,0.7,76,0.00,,,0.56,WUHU216HW,2013-08-08 03:57:00,
2013-08-07 23:01:00,76.1,67.7,30.04,NNW,338,0.0,0.0,75,0.00,,,0.56,WUHU216HW,2013-08-08 04:01:00,
2013-08-07 23:06:00,76.0,67.9,30.04,NNW,338,0.0,0.0,76,0.00,,,0.56,WUHU216HW,2013-08-08 04:06:00,
2013-08-07 23:11:00,75.6,67.5,30.04,East,90,0.4,0.9,76,0.00,,,0.56,WUHU216HW,2013-08-08 04:11:00,
2013-08-07 23:16:00,75.4,67.3,30.04,NE,45,0.7,1.1,76,0.00,,,0.56,WUHU216HW,2013-08-08 04:16:00,
2013-08-07 23:21:00,75.4,67.8,30.04,ENE,68,0.0,1.1,77,0.00,,,0.56,WUHU216HW,2013-08-08 04:21:00,
2013-08-07 23:26:00,75.2,67.6,30.04,ESE,113,0.0,0.4,77,0.00,,,0.56,WUHU216HW,2013-08-08 04:26:00,
2013-08-07 23:31:00,75.1,67.4,30.04,ENE,68,0.0,0.7,77,0.00,,,0.56,WUHU216HW,2013-08-08 04:31:00,
2013-08-07 23:36:00,75.1,67.4,30.04,ESE,113,0.0,1.1,77,0.00,,,0.56,WUHU216HW,2013-08-08 04:36:00,
2013-08-07 23:41:00,74.9,67.6,30.04,ESE,113,0.4,1.3,78,0.00,,,0.56,WUHU216HW,2013-08-08 04:41:00,
2013-08-07 23:46:00,74.9,67.6,30.04,East,90,0.0,1.3,78,0.00,,,0.56,WUHU216HW,2013-08-08 04:46:00,
2013-08-07 23:51:00,74.7,67.4,30.04,ESE,113,0.2,1.6,78,0.00,,,0.56,WUHU216HW,2013-08-08 04:51:00,
2013-08-07 23:56:00,74.5,67.2,30.04,East,90,0.0,1.6,78,0.00,,,0.56,WUHU216HW,2013-08-08 04:56:00,